createdAt,value
2023-02-03T00:01:30.611Z,83.10
2023-02-03T00:03:58.751Z,82.80
2023-02-03T00:06:27.088Z,82.60
2023-02-03T00:08:57.043Z,81.90
2023-02-03T00:11:25.228Z,81.20
2023-02-03T00:13:53.340Z,81.00
2023-02-03T00:16:21.667Z,81.30
2023-02-03T00:18:51.155Z,81.90
2023-02-03T00:21:19.247Z,82.60
2023-02-03T00:23:47.280Z,81.70
2023-02-03T00:26:17.329Z,81.20
2023-02-03T00:28:46.684Z,80.50
2023-02-03T00:31:18.972Z,80.00
2023-02-03T00:33:47.817Z,80.00
2023-02-03T00:36:17.255Z,80.10
2023-02-03T00:38:45.345Z,81.30
2023-02-03T00:41:13.412Z,80.70
2023-02-03T00:43:41.529Z,80.40
2023-02-03T00:46:09.703Z,80.60
2023-02-03T00:48:37.807Z,81.00
2023-02-03T00:51:06.363Z,81.40
2023-02-03T00:53:36.080Z,81.00
2023-02-03T00:56:04.252Z,81.30
2023-02-03T00:58:32.347Z,81.20
2023-02-03T01:01:00.439Z,81.30
2023-02-03T01:03:28.605Z,80.90
2023-02-03T01:05:56.708Z,80.30
2023-02-03T01:08:24.809Z,79.80
2023-02-03T01:10:54.536Z,80.90
2023-02-03T01:13:22.677Z,80.90
2023-02-03T01:15:50.802Z,80.50
2023-02-03T01:18:18.861Z,80.70
2023-02-03T01:20:46.994Z,81.20
2023-02-03T01:23:15.075Z,80.90
2023-02-03T01:25:43.340Z,81.10
2023-02-03T01:28:13.813Z,81.20
2023-02-03T01:30:42.012Z,81.70
2023-02-03T01:33:10.261Z,81.50
2023-02-03T01:35:38.458Z,81.70
2023-02-03T01:38:06.567Z,81.70
2023-02-03T01:40:34.673Z,82.30
2023-02-03T01:43:03.176Z,81.70
2023-02-03T01:45:32.808Z,81.70
2023-02-03T01:48:01.501Z,81.50
2023-02-03T01:50:33.575Z,80.70
2023-02-03T01:53:04.936Z,81.60
2023-02-03T01:55:38.403Z,82.30
2023-02-03T01:58:09.987Z,81.20
2023-02-03T02:00:39.474Z,81.50
2023-02-03T02:03:09.394Z,81.50
2023-02-03T02:05:42.203Z,80.80
2023-02-03T02:08:14.992Z,80.30
2023-02-03T02:10:43.169Z,80.80
2023-02-03T02:13:12.050Z,80.50
2023-02-03T02:15:51.312Z,80.40
2023-02-03T02:18:35.852Z,79.90
2023-02-03T02:21:38.391Z,80.10
2023-02-03T02:24:36.661Z,79.00
2023-02-03T02:27:10.891Z,79.40
2023-02-03T02:30:22.456Z,78.70
2023-02-03T02:33:15.863Z,78.70
2023-02-03T02:35:52.100Z,78.10
2023-02-03T02:38:35.704Z,77.70
2023-02-03T02:41:09.528Z,77.00
2023-02-03T02:43:43.004Z,76.80
2023-02-03T02:46:15.528Z,77.00
2023-02-03T02:48:49.113Z,76.80
2023-02-03T02:51:18.156Z,76.80
2023-02-03T02:53:51.117Z,75.60
2023-02-03T02:56:20.980Z,75.30
2023-02-03T02:58:51.760Z,75.40
2023-02-03T03:01:20.213Z,74.80
2023-02-03T03:03:49.937Z,74.70
2023-02-03T03:06:23.546Z,74.40
2023-02-03T03:08:57.952Z,73.90
2023-02-03T03:11:28.419Z,74.20
2023-02-03T03:13:59.947Z,73.60
2023-02-03T03:16:31.857Z,73.50
2023-02-03T03:19:06.080Z,73.70
2023-02-03T03:21:39.080Z,73.80
2023-02-03T03:24:12.735Z,73.80
2023-02-03T03:26:46.510Z,74.10
2023-02-03T03:29:20.832Z,73.00
2023-02-03T03:31:50.064Z,73.60
2023-02-03T03:34:20.345Z,73.60
2023-02-03T03:36:55.321Z,73.40
2023-02-03T03:39:29.883Z,73.20
2023-02-03T03:42:02.401Z,72.90
2023-02-03T03:44:37.059Z,71.40
2023-02-03T03:47:11.362Z,72.20
2023-02-03T03:49:43.055Z,71.90
2023-02-03T03:52:16.312Z,71.20
2023-02-03T03:54:47.092Z,71.30
2023-02-03T03:57:20.123Z,71.60
2023-02-03T03:59:50.583Z,72.10
2023-02-03T04:02:21.079Z,72.90
2023-02-03T04:04:51.659Z,72.80
2023-02-03T04:07:20.226Z,73.20
2023-02-03T04:09:48.414Z,74.30
2023-02-03T04:12:23.634Z,74.60
2023-02-03T04:14:51.796Z,74.90
2023-02-03T04:17:20.331Z,75.70
2023-02-03T04:19:50.416Z,76.40
2023-02-03T04:22:18.635Z,76.30
2023-02-03T04:24:46.823Z,75.80
2023-02-03T04:27:14.926Z,75.80
2023-02-03T04:29:43.082Z,76.00
2023-02-03T04:32:11.303Z,76.70
2023-02-03T04:34:39.425Z,76.30
2023-02-03T04:37:09.332Z,77.60
2023-02-03T04:39:37.515Z,77.30
2023-02-03T04:42:05.771Z,77.10
2023-02-03T04:44:34.237Z,77.10
2023-02-03T04:47:02.325Z,78.00
2023-02-03T04:49:30.628Z,79.60
2023-02-03T04:51:58.702Z,80.30
2023-02-03T04:54:28.354Z,80.00
2023-02-03T04:56:56.567Z,79.80
2023-02-03T04:59:24.712Z,80.20
2023-02-03T05:01:52.805Z,79.90
2023-02-03T05:04:20.867Z,80.90
2023-02-03T05:06:49.207Z,81.50
2023-02-03T05:09:17.659Z,81.40
2023-02-03T05:11:47.174Z,80.30
2023-02-03T05:14:15.227Z,80.40
2023-02-03T05:16:43.357Z,80.30
2023-02-03T05:19:11.816Z,80.40
2023-02-03T05:21:39.963Z,79.20
2023-02-03T05:24:08.695Z,78.90
2023-02-03T05:26:37.283Z,79.40
2023-02-03T05:29:06.948Z,79.30
2023-02-03T05:31:35.254Z,79.50
2023-02-03T05:34:03.339Z,79.30
2023-02-03T05:36:31.479Z,79.90
2023-02-03T05:38:59.671Z,79.30
2023-02-03T05:41:45.352Z,80.00
2023-02-03T05:44:14.876Z,79.20
2023-02-03T05:46:43.111Z,79.30
2023-02-03T05:49:11.398Z,78.60
2023-02-03T05:51:40.383Z,78.30
2023-02-03T05:54:08.602Z,78.70
2023-02-03T05:56:36.888Z,79.20
2023-02-03T05:59:05.356Z,78.10
2023-02-03T06:01:35.640Z,78.30
2023-02-03T06:04:04.716Z,78.20
2023-02-03T06:06:34.304Z,78.30
2023-02-03T06:09:03.095Z,78.10
2023-02-03T06:11:31.310Z,78.30
2023-02-03T06:14:00.197Z,78.30
2023-02-03T06:16:28.914Z,78.30
2023-02-03T06:19:00.812Z,78.30
2023-02-03T06:21:29.829Z,78.40
2023-02-03T06:23:57.964Z,79.20
2023-02-03T06:26:26.235Z,80.00
2023-02-03T06:28:54.321Z,79.90
2023-02-03T06:31:22.634Z,81.00
2023-02-03T06:33:50.916Z,80.70
2023-02-03T06:36:20.392Z,80.70
2023-02-03T06:38:48.496Z,80.20
2023-02-03T06:41:16.647Z,80.30
2023-02-03T06:43:44.792Z,80.70
2023-02-03T06:46:13.134Z,80.50
2023-02-03T06:48:41.235Z,81.40
2023-02-03T06:51:09.457Z,80.40
2023-02-03T06:53:38.893Z,80.40
2023-02-03T06:56:07.622Z,81.00
2023-02-03T06:58:35.900Z,81.60
2023-02-03T07:01:04.225Z,82.10
2023-02-03T07:03:32.327Z,81.60
2023-02-03T07:06:00.522Z,81.60
2023-02-03T07:08:28.765Z,81.60
2023-02-03T07:10:58.408Z,81.60
2023-02-03T07:13:26.752Z,81.40
2023-02-03T07:15:54.864Z,80.80
2023-02-03T07:18:47.245Z,81.00
2023-02-03T07:21:13.326Z,81.00
2023-02-03T07:23:41.765Z,81.50
2023-02-03T07:26:12.290Z,82.00
2023-02-03T07:28:40.464Z,81.60
2023-02-03T07:31:10.405Z,81.80
2023-02-03T07:33:39.796Z,81.80
2023-02-03T07:36:09.557Z,82.40
2023-02-03T07:38:38.793Z,82.80
2023-02-03T07:41:07.348Z,82.30
2023-02-03T07:43:37.100Z,82.30
2023-02-03T07:46:05.657Z,81.80
2023-02-03T07:48:33.853Z,82.80
2023-02-03T07:51:01.915Z,83.40
2023-02-03T07:53:30.169Z,83.20
2023-02-03T07:56:01.454Z,83.30
2023-02-03T07:58:29.765Z,83.50
2023-02-03T08:00:59.852Z,83.20
2023-02-03T08:03:28.080Z,83.80
2023-02-03T08:05:56.197Z,83.60
2023-02-03T08:08:24.314Z,83.50
2023-02-03T08:10:52.455Z,84.20
2023-02-03T08:13:20.623Z,83.90
2023-02-03T08:15:49.010Z,83.60
2023-02-03T08:18:18.515Z,83.50
2023-02-03T08:20:48.177Z,83.90
2023-02-03T08:23:16.339Z,83.90
2023-02-03T08:25:44.540Z,83.70
2023-02-03T08:28:12.873Z,83.80
2023-02-03T08:30:41.005Z,84.10
2023-02-03T08:33:09.158Z,84.30
2023-02-03T08:35:40.037Z,84.10
2023-02-03T08:38:08.179Z,84.80
2023-02-03T08:40:36.467Z,84.30
2023-02-03T08:43:04.551Z,83.40
2023-02-03T08:45:32.665Z,83.30
2023-02-03T08:48:00.808Z,83.50
2023-02-03T08:50:29.404Z,83.30
2023-02-03T08:52:59.079Z,82.90
2023-02-03T08:55:27.221Z,84.80
2023-02-03T08:57:56.185Z,84.60
2023-02-03T09:00:24.695Z,84.60
2023-02-03T09:02:52.892Z,86.10
2023-02-03T09:05:22.813Z,86.30
2023-02-03T09:07:51.075Z,85.60
2023-02-03T09:10:20.668Z,85.40
2023-02-03T09:12:48.732Z,85.50
2023-02-03T09:15:17.265Z,86.30
2023-02-03T09:17:45.378Z,86.80
2023-02-03T09:20:15.172Z,86.50
2023-02-03T09:22:43.491Z,86.70
2023-02-03T09:25:11.913Z,87.30
2023-02-03T09:27:41.450Z,88.40
2023-02-03T09:30:10.699Z,88.60
2023-02-03T09:32:38.881Z,88.40
2023-02-03T09:35:07.754Z,88.20
2023-02-03T09:37:35.882Z,88.00
2023-02-03T09:40:04.243Z,87.80
2023-02-03T09:45:32.134Z,88.00
2023-02-03T09:48:06.529Z,88.10
2023-02-03T09:50:37.393Z,87.80
2023-02-03T09:53:11.688Z,88.20
2023-02-03T09:55:42.603Z,88.00
2023-02-03T09:58:13.402Z,87.50
2023-02-03T10:00:45.849Z,87.30
2023-02-03T10:03:24.516Z,87.90
2023-02-03T10:06:06.740Z,87.10
2023-02-03T10:08:57.412Z,86.70
2023-02-03T10:11:37.243Z,86.80
2023-02-03T10:14:21.984Z,87.60
2023-02-03T10:17:01.199Z,88.00
2023-02-03T10:19:38.728Z,87.80
2023-02-03T10:22:10.381Z,88.50
2023-02-03T10:24:44.323Z,88.50
2023-02-03T10:27:18.447Z,88.80
2023-02-03T10:29:50.318Z,89.50
2023-02-03T10:32:19.852Z,89.70
2023-02-03T10:34:49.452Z,89.90
2023-02-03T10:37:29.054Z,88.70
2023-02-03T10:39:59.449Z,88.90
2023-02-03T10:42:48.393Z,88.50
2023-02-03T10:45:17.023Z,88.80
2023-02-03T10:47:51.384Z,87.20
2023-02-03T10:50:21.774Z,87.80
2023-02-03T10:52:50.183Z,86.20
2023-02-03T10:55:33.307Z,86.00
2023-02-03T10:58:13.962Z,84.30
2023-02-03T11:00:42.983Z,84.50
2023-02-03T11:03:24.214Z,85.10
2023-02-03T11:06:06.893Z,84.50
2023-02-03T11:08:35.717Z,84.30
2023-02-03T11:11:04.872Z,83.30
2023-02-03T11:13:33.111Z,82.80
2023-02-03T11:16:03.515Z,81.20
2023-02-03T11:18:47.611Z,81.30
2023-02-03T11:21:19.227Z,81.10
2023-02-03T11:23:56.810Z,79.50
2023-02-03T11:26:29.257Z,79.20
2023-02-03T11:29:00.541Z,77.60
2023-02-03T11:31:31.009Z,77.70
2023-02-03T11:34:04.377Z,76.10
2023-02-03T11:36:35.693Z,76.00
2023-02-03T11:39:19.950Z,76.20
2023-02-03T11:41:49.677Z,75.50
2023-02-03T11:44:24.049Z,75.50
2023-02-03T11:46:56.627Z,74.90
2023-02-03T11:50:03.975Z,74.90
2023-02-03T11:52:51.423Z,75.20
2023-02-03T11:55:37.521Z,74.20
2023-02-03T12:00:58.178Z,74.50
2023-02-03T12:04:00.774Z,74.00
2023-02-03T12:06:47.593Z,73.20
2023-02-03T12:09:31.967Z,73.50
2023-02-03T12:12:19.551Z,73.90
2023-02-03T12:14:57.863Z,73.20
2023-02-03T12:17:51.385Z,73.80
2023-02-03T12:20:42.190Z,74.30
2023-02-03T12:23:25.060Z,74.60
2023-02-03T12:26:04.705Z,74.70
2023-02-03T12:28:46.520Z,74.10
2023-02-03T12:31:20.352Z,73.80
2023-02-03T12:33:54.119Z,74.10
2023-02-03T12:36:27.588Z,73.60
2023-02-03T12:39:02.862Z,73.40
2023-02-03T12:41:36.902Z,72.20
2023-02-03T12:44:09.544Z,72.60
2023-02-03T12:46:43.622Z,72.80
2023-02-03T12:49:29.914Z,72.00
2023-02-03T12:52:03.245Z,71.50
2023-02-03T12:54:41.826Z,71.80
2023-02-03T12:57:19.401Z,70.70
2023-02-03T12:59:58.380Z,69.50
2023-02-03T13:02:29.959Z,68.80
2023-02-03T13:05:03.128Z,69.20
2023-02-03T13:07:37.275Z,69.10
2023-02-03T13:10:17.078Z,68.90
2023-02-03T13:12:49.569Z,69.20
2023-02-03T13:15:25.947Z,69.00
2023-02-03T13:17:57.649Z,68.30
2023-02-03T13:20:29.231Z,68.20
2023-02-03T13:22:57.701Z,67.30
2023-02-03T13:25:37.301Z,67.40
2023-02-03T13:28:16.321Z,67.30
2023-02-03T13:31:02.290Z,68.50
2023-02-03T13:33:54.990Z,67.90
2023-02-03T13:37:03.592Z,67.10
2023-02-03T13:39:44.495Z,67.10
2023-02-03T13:42:22.705Z,67.00
2023-02-03T13:44:54.869Z,67.40
2023-02-03T13:47:27.681Z,67.00
2023-02-03T13:50:01.405Z,66.60
2023-02-03T13:52:35.690Z,66.70
2023-02-03T13:55:05.525Z,66.30
2023-02-03T13:57:37.107Z,66.50
2023-02-03T14:00:21.249Z,67.00
2023-02-03T14:02:55.942Z,67.10
2023-02-03T14:05:48.905Z,66.50
2023-02-03T14:08:54.241Z,66.70
2023-02-03T14:11:42.250Z,66.60
2023-02-03T14:14:56.472Z,66.20
2023-02-03T14:18:04.235Z,66.40
2023-02-03T14:20:41.477Z,65.40
2023-02-03T14:23:15.877Z,65.60
2023-02-03T14:25:47.414Z,65.00
2023-02-03T14:28:18.962Z,65.80
2023-02-03T14:31:22.947Z,65.30
2023-02-03T14:34:12.849Z,64.90
2023-02-03T14:36:56.369Z,64.10
2023-02-03T14:40:06.810Z,65.20
2023-02-03T14:43:17.430Z,65.60
2023-02-03T14:46:11.020Z,65.30
2023-02-03T14:48:52.040Z,64.80
2023-02-03T14:51:35.093Z,64.40
2023-02-03T14:54:23.011Z,64.10
2023-02-03T14:57:19.818Z,64.20
2023-02-03T14:59:51.070Z,64.50
2023-02-03T15:02:23.326Z,64.30
2023-02-03T15:04:54.039Z,64.70
2023-02-03T15:07:45.344Z,64.70
2023-02-03T15:10:16.172Z,64.70
2023-02-03T15:12:50.115Z,64.60
2023-02-03T15:15:24.362Z,63.80
2023-02-03T15:17:54.357Z,64.20
2023-02-03T15:20:33.784Z,63.50
2023-02-03T15:23:02.106Z,63.30
2023-02-03T15:25:32.992Z,63.70
2023-02-03T15:28:22.545Z,63.70
2023-02-03T15:30:56.000Z,63.60
2023-02-03T15:33:24.924Z,63.80
2023-02-03T15:35:58.983Z,63.80
2023-02-03T15:38:30.658Z,64.40
2023-02-03T15:40:59.450Z,64.50
2023-02-03T15:43:33.738Z,64.00
2023-02-03T15:46:08.845Z,64.10
2023-02-03T15:48:41.259Z,64.80
2023-02-03T15:51:16.070Z,65.00
2023-02-03T15:53:53.358Z,64.70
2023-02-03T15:56:26.779Z,64.60
2023-02-03T15:58:55.351Z,65.20
2023-02-03T16:01:28.132Z,64.90
2023-02-03T16:03:58.057Z,65.20
2023-02-03T16:06:30.629Z,65.20
2023-02-03T16:09:00.748Z,65.60
2023-02-03T16:11:32.437Z,65.70
2023-02-03T16:14:03.347Z,64.90
2023-02-03T16:16:36.485Z,64.80
2023-02-03T16:19:07.661Z,64.70
2023-02-03T16:21:52.840Z,64.90
2023-02-03T16:24:42.617Z,64.40
2023-02-03T16:27:34.964Z,64.00
2023-02-03T16:30:41.453Z,63.40
2023-02-03T16:33:33.464Z,64.90
2023-02-03T16:36:28.391Z,64.00
2023-02-03T16:39:20.296Z,63.90
2023-02-03T16:42:06.315Z,64.10
2023-02-03T16:44:51.808Z,64.40
2023-02-03T16:47:43.508Z,65.20
2023-02-03T16:50:38.658Z,65.70
2023-02-03T16:53:07.675Z,66.50
2023-02-03T16:55:37.471Z,67.60
2023-02-03T16:58:05.707Z,68.20
2023-02-03T17:00:34.028Z,68.70
2023-02-03T17:03:05.566Z,68.80
2023-02-03T17:05:38.413Z,69.70
2023-02-03T17:08:07.088Z,68.90
2023-02-03T17:10:36.936Z,68.40
2023-02-03T17:13:05.631Z,68.80
2023-02-03T17:15:33.672Z,69.30
2023-02-03T17:18:02.198Z,69.50
2023-02-03T17:20:30.320Z,69.50
2023-02-03T17:22:58.364Z,70.10
2023-02-03T17:25:26.713Z,69.30
2023-02-03T17:27:56.447Z,68.90
2023-02-03T17:30:24.573Z,68.30
2023-02-03T17:32:52.731Z,68.60
2023-02-03T17:35:20.918Z,68.80
2023-02-03T17:37:49.088Z,68.40
2023-02-03T17:54:12.372Z,69.20
2023-02-03T17:56:40.571Z,69.70
2023-02-03T17:59:10.834Z,69.70
2023-02-03T18:01:38.988Z,70.20
2023-02-03T18:04:08.866Z,70.30
2023-02-03T18:06:37.119Z,71.00
2023-02-03T18:09:06.653Z,70.20
2023-02-03T18:11:36.670Z,69.60
2023-02-03T18:14:05.979Z,69.80
2023-02-03T18:16:37.383Z,69.70
2023-02-03T18:19:08.328Z,69.80
2023-02-03T18:21:39.682Z,69.30
2023-02-03T18:24:08.724Z,68.80
2023-02-03T18:26:37.278Z,69.00
2023-02-03T18:29:06.510Z,69.30
2023-02-03T18:31:37.521Z,68.80
2023-02-03T18:34:06.639Z,68.70
2023-02-03T18:36:34.806Z,68.50
2023-02-03T18:39:03.197Z,68.50
2023-02-03T18:41:31.767Z,68.90
2023-02-03T18:43:59.989Z,68.20
2023-02-03T18:46:29.620Z,67.80
2023-02-03T18:48:59.461Z,68.00
2023-02-03T18:51:28.720Z,67.90
2023-02-03T18:53:58.320Z,67.90
2023-02-03T18:56:28.233Z,67.90
2023-02-03T18:58:56.949Z,67.90
2023-02-03T19:01:27.118Z,68.50
2023-02-03T19:03:55.467Z,68.30
2023-02-03T19:06:25.780Z,68.50
2023-02-03T19:08:53.941Z,68.50
2023-02-03T19:11:22.170Z,68.50
2023-02-03T19:13:50.472Z,68.50
2023-02-03T19:16:19.512Z,68.50
2023-02-03T19:18:48.058Z,68.30
2023-02-03T19:21:17.455Z,68.30
2023-02-03T19:23:46.906Z,68.10
2023-02-03T19:26:15.024Z,68.50
2023-02-03T19:28:43.265Z,68.20
2023-02-03T19:31:15.116Z,68.60
2023-02-03T19:33:43.887Z,69.30
2023-02-03T19:36:13.034Z,68.10
2023-02-03T19:38:41.232Z,68.30
2023-02-03T19:41:11.812Z,68.50
2023-02-03T19:43:40.410Z,68.50
2023-02-03T19:46:08.978Z,69.20
2023-02-03T19:48:37.524Z,68.60
2023-02-03T19:51:07.109Z,68.30
2023-02-03T19:53:35.180Z,68.40
2023-02-03T19:56:03.310Z,69.40
2023-02-03T19:58:32.878Z,68.70
2023-02-03T20:01:01.049Z,68.40
2023-02-03T20:03:29.285Z,68.50
2023-02-03T20:05:57.647Z,68.90
2023-02-03T20:08:25.766Z,68.80
2023-02-03T20:10:53.928Z,69.10
2023-02-03T20:13:22.085Z,68.80
2023-02-03T20:15:51.694Z,69.20
2023-02-03T20:18:19.827Z,69.50
2023-02-03T20:20:51.333Z,69.60
2023-02-03T20:23:19.426Z,69.60
2023-02-03T20:25:50.203Z,69.50
2023-02-03T20:28:18.713Z,69.60
2023-02-03T20:30:47.470Z,69.60
2023-02-03T20:33:16.964Z,69.80
2023-02-03T20:35:45.088Z,70.50
2023-02-03T20:38:15.555Z,71.60
2023-02-03T20:40:44.097Z,72.30
2023-02-03T20:43:18.053Z,72.40
2023-02-03T20:45:46.781Z,73.20
2023-02-03T20:48:17.400Z,73.50
2023-02-03T20:50:47.344Z,73.30
2023-02-03T20:53:20.661Z,73.00
2023-02-03T20:55:49.694Z,72.60
2023-02-03T20:58:20.117Z,73.10
2023-02-03T21:00:49.520Z,72.80
2023-02-03T21:03:52.961Z,73.10
2023-02-03T21:06:21.879Z,72.90
2023-02-03T21:08:50.080Z,74.50
2023-02-03T21:11:20.229Z,76.20
2023-02-03T21:13:50.068Z,78.50
2023-02-03T21:16:20.048Z,79.00
2023-02-03T21:18:52.906Z,79.10
2023-02-03T21:21:27.392Z,80.90
2023-02-03T21:23:56.148Z,81.40
2023-02-03T21:26:25.879Z,81.70
2023-02-03T21:28:55.441Z,81.50
2023-02-03T21:31:27.236Z,81.70
2023-02-03T21:33:58.346Z,82.60
2023-02-03T21:36:28.236Z,82.90
2023-02-03T21:38:59.092Z,83.70
2023-02-03T21:41:29.690Z,84.00
2023-02-03T21:44:00.219Z,84.60
2023-02-03T21:46:30.204Z,85.30
2023-02-03T21:49:00.673Z,86.40
2023-02-03T21:51:32.646Z,87.20
2023-02-03T21:54:02.587Z,88.60
2023-02-03T21:56:39.145Z,88.90
2023-02-03T21:59:16.719Z,89.80
2023-02-03T22:01:44.986Z,89.70
2023-02-03T22:04:14.865Z,90.30
2023-02-03T22:06:45.085Z,91.00
2023-02-03T22:09:14.786Z,92.00
2023-02-03T22:11:43.057Z,92.70
2023-02-03T22:14:11.184Z,93.50
2023-02-03T22:16:39.289Z,94.00
2023-02-03T22:19:07.665Z,93.70
2023-02-03T22:21:37.767Z,94.70
2023-02-03T22:24:07.521Z,94.90
2023-02-03T22:26:35.647Z,95.20
2023-02-03T22:29:03.745Z,95.90
2023-02-03T22:31:32.493Z,96.30
2023-02-03T22:34:00.874Z,96.70
2023-02-03T22:36:28.997Z,97.90
2023-02-03T22:38:58.689Z,97.60
2023-02-03T22:41:26.978Z,98.90
2023-02-03T22:43:55.122Z,98.50
2023-02-03T22:46:23.260Z,99.00
2023-02-03T22:48:51.449Z,99.40
2023-02-03T22:51:19.552Z,99.50
2023-02-03T22:53:47.643Z,99.80
2023-02-03T22:56:17.047Z,99.90
2023-02-03T22:58:45.100Z,99.90
2023-02-03T23:01:13.228Z,99.90
2023-02-03T23:03:41.449Z,99.90
2023-02-03T23:06:09.518Z,99.90
2023-02-03T23:08:37.649Z,99.90
2023-02-03T23:11:05.956Z,99.90
2023-02-03T23:13:35.493Z,99.90
2023-02-03T23:16:03.816Z,99.90
2023-02-03T23:18:31.940Z,99.90
2023-02-03T23:21:00.019Z,99.90
2023-02-03T23:23:28.088Z,99.90
2023-02-03T23:25:56.168Z,99.90
2023-02-03T23:28:24.233Z,99.90
2023-02-03T23:30:53.836Z,99.90
2023-02-03T23:33:22.301Z,99.90
2023-02-03T23:35:50.712Z,99.90
2023-02-03T23:38:19.420Z,99.90
2023-02-03T23:40:47.884Z,99.90
2023-02-03T23:43:16.225Z,99.90
2023-02-03T23:45:44.334Z,99.90
2023-02-03T23:48:13.822Z,99.90
2023-02-03T23:50:41.933Z,99.90
2023-02-03T23:53:10.066Z,99.90
2023-02-03T23:55:38.153Z,99.90
2023-02-03T23:58:06.260Z,99.90
